sensor_id;sensor_type;location;lat;lon;timestamp;P1;durP1;ratioP1;P2;durP2;ratioP2
9413;SDS011;4746;35.664;139.738;2023-07-08T00:00:54;14.88;;;9.77;;
9413;SDS011;4746;35.664;139.738;2023-07-08T00:03:23;16.23;;;9.65;;
9413;SDS011;4746;35.664;139.738;2023-07-08T00:05:53;16.65;;;10.55;;
9413;SDS011;4746;35.664;139.738;2023-07-08T00:08:22;15.00;;;9.55;;
9413;SDS011;4746;35.664;139.738;2023-07-08T00:10:51;16.92;;;10.15;;
9413;SDS011;4746;35.664;139.738;2023-07-08T00:13:18;22.15;;;10.52;;
9413;SDS011;4746;35.664;139.738;2023-07-08T00:15:46;11.98;;;9.10;;
9413;SDS011;4746;35.664;139.738;2023-07-08T00:18:16;16.15;;;8.85;;
9413;SDS011;4746;35.664;139.738;2023-07-08T00:20:48;11.85;;;8.75;;
9413;SDS011;4746;35.664;139.738;2023-07-08T00:23:16;13.30;;;8.90;;
9413;SDS011;4746;35.664;139.738;2023-07-08T00:25:47;18.80;;;9.63;;
9413;SDS011;4746;35.664;139.738;2023-07-08T00:28:16;20.08;;;10.35;;
9413;SDS011;4746;35.664;139.738;2023-07-08T00:30:46;11.63;;;8.57;;
9413;SDS011;4746;35.664;139.738;2023-07-08T00:33:15;14.48;;;8.98;;
9413;SDS011;4746;35.664;139.738;2023-07-08T00:35:43;14.90;;;8.75;;
9413;SDS011;4746;35.664;139.738;2023-07-08T00:38:18;12.77;;;8.07;;
9413;SDS011;4746;35.664;139.738;2023-07-08T00:43:45;14.18;;;8.23;;
9413;SDS011;4746;35.664;139.738;2023-07-08T00:51:34;13.77;;;8.80;;
9413;SDS011;4746;35.664;139.738;2023-07-08T00:54:11;13.35;;;8.85;;
9413;SDS011;4746;35.664;139.738;2023-07-08T00:56:54;15.40;;;8.82;;
9413;SDS011;4746;35.664;139.738;2023-07-08T00:59:36;10.70;;;8.18;;
9413;SDS011;4746;35.664;139.738;2023-07-08T01:02:11;13.93;;;8.38;;
9413;SDS011;4746;35.664;139.738;2023-07-08T01:04:49;15.88;;;8.68;;
9413;SDS011;4746;35.664;139.738;2023-07-08T01:07:38;11.70;;;8.10;;
9413;SDS011;4746;35.664;139.738;2023-07-08T01:10:14;14.50;;;8.07;;
9413;SDS011;4746;35.664;139.738;2023-07-08T01:13:16;17.02;;;9.27;;
9413;SDS011;4746;35.664;139.738;2023-07-08T01:15:46;14.82;;;7.80;;
9413;SDS011;4746;35.664;139.738;2023-07-08T01:18:15;13.40;;;8.73;;
9413;SDS011;4746;35.664;139.738;2023-07-08T01:20:46;14.20;;;8.77;;
9413;SDS011;4746;35.664;139.738;2023-07-08T01:23:14;15.18;;;8.52;;
9413;SDS011;4746;35.664;139.738;2023-07-08T01:25:44;17.92;;;8.85;;
9413;SDS011;4746;35.664;139.738;2023-07-08T01:28:12;13.73;;;8.13;;
9413;SDS011;4746;35.664;139.738;2023-07-08T01:30:41;15.55;;;8.35;;
9413;SDS011;4746;35.664;139.738;2023-07-08T01:33:15;15.10;;;8.07;;
9413;SDS011;4746;35.664;139.738;2023-07-08T01:35:47;12.93;;;8.07;;
9413;SDS011;4746;35.664;139.738;2023-07-08T01:38:16;13.70;;;7.72;;
9413;SDS011;4746;35.664;139.738;2023-07-08T01:40:52;12.02;;;7.75;;
9413;SDS011;4746;35.664;139.738;2023-07-08T01:43:23;11.55;;;7.13;;
9413;SDS011;4746;35.664;139.738;2023-07-08T01:45:51;12.63;;;6.93;;
9413;SDS011;4746;35.664;139.738;2023-07-08T01:48:22;10.95;;;7.20;;
9413;SDS011;4746;35.664;139.738;2023-07-08T01:50:54;10.18;;;7.93;;
9413;SDS011;4746;35.664;139.738;2023-07-08T01:53:34;11.23;;;7.25;;
9413;SDS011;4746;35.664;139.738;2023-07-08T01:56:06;13.38;;;7.55;;
9413;SDS011;4746;35.664;139.738;2023-07-08T01:58:35;10.60;;;7.10;;
9413;SDS011;4746;35.664;139.738;2023-07-08T02:01:02;11.50;;;7.32;;
9413;SDS011;4746;35.664;139.738;2023-07-08T02:03:31;13.10;;;6.60;;
9413;SDS011;4746;35.664;139.738;2023-07-08T02:05:59;12.23;;;6.68;;
9413;SDS011;4746;35.664;139.738;2023-07-08T02:08:27;9.30;;;6.95;;
9413;SDS011;4746;35.664;139.738;2023-07-08T02:10:56;12.10;;;6.88;;
9413;SDS011;4746;35.664;139.738;2023-07-08T02:13:25;12.88;;;7.20;;
9413;SDS011;4746;35.664;139.738;2023-07-08T02:15:52;9.63;;;6.43;;
9413;SDS011;4746;35.664;139.738;2023-07-08T02:18:20;10.98;;;6.97;;
9413;SDS011;4746;35.664;139.738;2023-07-08T02:20:50;11.38;;;6.68;;
9413;SDS011;4746;35.664;139.738;2023-07-08T02:23:17;9.48;;;6.90;;
9413;SDS011;4746;35.664;139.738;2023-07-08T02:25:52;10.38;;;6.70;;
9413;SDS011;4746;35.664;139.738;2023-07-08T02:28:21;12.80;;;6.85;;
9413;SDS011;4746;35.664;139.738;2023-07-08T02:30:50;13.02;;;6.93;;
9413;SDS011;4746;35.664;139.738;2023-07-08T02:33:17;15.07;;;7.18;;
9413;SDS011;4746;35.664;139.738;2023-07-08T02:35:45;13.55;;;7.20;;
9413;SDS011;4746;35.664;139.738;2023-07-08T02:38:12;14.20;;;7.63;;
9413;SDS011;4746;35.664;139.738;2023-07-08T02:40:40;12.98;;;7.20;;
9413;SDS011;4746;35.664;139.738;2023-07-08T02:43:08;12.35;;;6.30;;
9413;SDS011;4746;35.664;139.738;2023-07-08T02:45:36;10.90;;;6.82;;
9413;SDS011;4746;35.664;139.738;2023-07-08T02:48:03;11.80;;;6.68;;
9413;SDS011;4746;35.664;139.738;2023-07-08T02:50:31;10.32;;;6.43;;
9413;SDS011;4746;35.664;139.738;2023-07-08T02:52:59;11.50;;;6.55;;
9413;SDS011;4746;35.664;139.738;2023-07-08T02:55:26;10.68;;;6.40;;
9413;SDS011;4746;35.664;139.738;2023-07-08T02:57:54;12.80;;;6.47;;
9413;SDS011;4746;35.664;139.738;2023-07-08T03:00:21;11.93;;;7.10;;
9413;SDS011;4746;35.664;139.738;2023-07-08T03:02:49;13.35;;;6.80;;
9413;SDS011;4746;35.664;139.738;2023-07-08T03:05:17;10.10;;;6.30;;
9413;SDS011;4746;35.664;139.738;2023-07-08T03:07:44;10.23;;;6.05;;
9413;SDS011;4746;35.664;139.738;2023-07-08T03:10:15;13.95;;;7.25;;
9413;SDS011;4746;35.664;139.738;2023-07-08T03:12:43;9.70;;;5.80;;
9413;SDS011;4746;35.664;139.738;2023-07-08T03:15:11;10.55;;;6.07;;
9413;SDS011;4746;35.664;139.738;2023-07-08T03:17:38;10.05;;;6.47;;
9413;SDS011;4746;35.664;139.738;2023-07-08T03:20:12;7.38;;;5.03;;
9413;SDS011;4746;35.664;139.738;2023-07-08T03:22:57;10.38;;;6.35;;
9413;SDS011;4746;35.664;139.738;2023-07-08T03:25:25;10.38;;;6.55;;
9413;SDS011;4746;35.664;139.738;2023-07-08T03:28:05;7.70;;;6.13;;
9413;SDS011;4746;35.664;139.738;2023-07-08T03:30:50;9.68;;;6.55;;
9413;SDS011;4746;35.664;139.738;2023-07-08T03:33:29;9.70;;;6.78;;
9413;SDS011;4746;35.664;139.738;2023-07-08T03:35:57;7.97;;;5.78;;
9413;SDS011;4746;35.664;139.738;2023-07-08T03:38:28;9.88;;;6.65;;
9413;SDS011;4746;35.664;139.738;2023-07-08T03:41:07;10.93;;;6.32;;
9413;SDS011;4746;35.664;139.738;2023-07-08T03:43:36;11.40;;;6.63;;
9413;SDS011;4746;35.664;139.738;2023-07-08T03:46:04;10.30;;;5.32;;
9413;SDS011;4746;35.664;139.738;2023-07-08T03:48:33;12.23;;;6.25;;
9413;SDS011;4746;35.664;139.738;2023-07-08T03:51:00;10.73;;;7.00;;
9413;SDS011;4746;35.664;139.738;2023-07-08T03:53:28;8.27;;;5.95;;
9413;SDS011;4746;35.664;139.738;2023-07-08T03:55:58;8.85;;;6.72;;
9413;SDS011;4746;35.664;139.738;2023-07-08T03:58:25;10.88;;;5.53;;
9413;SDS011;4746;35.664;139.738;2023-07-08T04:00:53;13.85;;;6.57;;
9413;SDS011;4746;35.664;139.738;2023-07-08T04:03:22;12.55;;;6.55;;
9413;SDS011;4746;35.664;139.738;2023-07-08T04:05:50;10.80;;;6.68;;
9413;SDS011;4746;35.664;139.738;2023-07-08T04:08:18;10.15;;;5.95;;
9413;SDS011;4746;35.664;139.738;2023-07-08T04:10:45;13.40;;;5.93;;
9413;SDS011;4746;35.664;139.738;2023-07-08T04:13:13;12.82;;;6.38;;
9413;SDS011;4746;35.664;139.738;2023-07-08T04:15:41;11.55;;;6.18;;
9413;SDS011;4746;35.664;139.738;2023-07-08T04:18:08;13.00;;;6.43;;
9413;SDS011;4746;35.664;139.738;2023-07-08T04:20:36;16.80;;;7.35;;
9413;SDS011;4746;35.664;139.738;2023-07-08T04:23:04;12.70;;;6.05;;
9413;SDS011;4746;35.664;139.738;2023-07-08T04:25:33;13.18;;;6.50;;
9413;SDS011;4746;35.664;139.738;2023-07-08T04:28:01;12.85;;;6.28;;
9413;SDS011;4746;35.664;139.738;2023-07-08T04:30:28;13.40;;;6.65;;
9413;SDS011;4746;35.664;139.738;2023-07-08T04:32:56;12.45;;;6.80;;
9413;SDS011;4746;35.664;139.738;2023-07-08T04:35:23;12.07;;;6.68;;
9413;SDS011;4746;35.664;139.738;2023-07-08T04:37:51;11.27;;;6.25;;
9413;SDS011;4746;35.664;139.738;2023-07-08T04:40:20;12.65;;;6.25;;
9413;SDS011;4746;35.664;139.738;2023-07-08T04:42:49;11.43;;;5.75;;
9413;SDS011;4746;35.664;139.738;2023-07-08T04:45:18;10.25;;;6.43;;
9413;SDS011;4746;35.664;139.738;2023-07-08T04:47:46;10.45;;;6.25;;
9413;SDS011;4746;35.664;139.738;2023-07-08T04:50:17;10.20;;;6.22;;
9413;SDS011;4746;35.664;139.738;2023-07-08T04:52:47;9.57;;;6.07;;
9413;SDS011;4746;35.664;139.738;2023-07-08T04:55:15;13.57;;;6.88;;
9413;SDS011;4746;35.664;139.738;2023-07-08T04:57:43;11.45;;;6.50;;
9413;SDS011;4746;35.664;139.738;2023-07-08T05:00:12;14.98;;;6.90;;
9413;SDS011;4746;35.664;139.738;2023-07-08T05:02:45;12.00;;;7.13;;
9413;SDS011;4746;35.664;139.738;2023-07-08T05:05:12;12.48;;;7.85;;
9413;SDS011;4746;35.664;139.738;2023-07-08T05:07:40;15.93;;;7.53;;
9413;SDS011;4746;35.664;139.738;2023-07-08T05:10:08;15.48;;;7.70;;
9413;SDS011;4746;35.664;139.738;2023-07-08T05:12:36;11.85;;;7.22;;
9413;SDS011;4746;35.664;139.738;2023-07-08T05:15:04;14.48;;;7.82;;
9413;SDS011;4746;35.664;139.738;2023-07-08T05:17:32;13.18;;;7.85;;
9413;SDS011;4746;35.664;139.738;2023-07-08T05:20:00;12.23;;;7.38;;
9413;SDS011;4746;35.664;139.738;2023-07-08T05:22:28;12.38;;;7.85;;
9413;SDS011;4746;35.664;139.738;2023-07-08T05:24:57;12.32;;;7.70;;
9413;SDS011;4746;35.664;139.738;2023-07-08T05:27:24;11.98;;;7.55;;
9413;SDS011;4746;35.664;139.738;2023-07-08T05:29:52;11.18;;;7.72;;
9413;SDS011;4746;35.664;139.738;2023-07-08T05:32:20;12.70;;;7.15;;
9413;SDS011;4746;35.664;139.738;2023-07-08T05:34:50;12.38;;;8.07;;
9413;SDS011;4746;35.664;139.738;2023-07-08T05:37:17;12.20;;;6.97;;
9413;SDS011;4746;35.664;139.738;2023-07-08T05:39:49;10.27;;;6.72;;
9413;SDS011;4746;35.664;139.738;2023-07-08T05:42:22;10.10;;;6.15;;
9413;SDS011;4746;35.664;139.738;2023-07-08T05:44:51;9.43;;;6.10;;
9413;SDS011;4746;35.664;139.738;2023-07-08T05:47:20;13.98;;;7.47;;
9413;SDS011;4746;35.664;139.738;2023-07-08T05:49:48;12.85;;;7.07;;
9413;SDS011;4746;35.664;139.738;2023-07-08T05:52:15;9.82;;;6.90;;
9413;SDS011;4746;35.664;139.738;2023-07-08T05:54:45;13.93;;;7.40;;
9413;SDS011;4746;35.664;139.738;2023-07-08T05:57:13;11.30;;;6.63;;
9413;SDS011;4746;35.664;139.738;2023-07-08T05:59:41;10.10;;;7.07;;
9413;SDS011;4746;35.664;139.738;2023-07-08T06:02:11;12.60;;;6.50;;
9413;SDS011;4746;35.664;139.738;2023-07-08T06:04:39;16.48;;;6.63;;
9413;SDS011;4746;35.664;139.738;2023-07-08T06:07:10;9.48;;;5.95;;
9413;SDS011;4746;35.664;139.738;2023-07-08T06:09:37;11.95;;;6.70;;
9413;SDS011;4746;35.664;139.738;2023-07-08T06:12:05;12.20;;;6.45;;
9413;SDS011;4746;35.664;139.738;2023-07-08T06:14:33;9.80;;;6.03;;
9413;SDS011;4746;35.664;139.738;2023-07-08T06:17:04;8.35;;;6.00;;
9413;SDS011;4746;35.664;139.738;2023-07-08T06:19:33;11.93;;;6.10;;
9413;SDS011;4746;35.664;139.738;2023-07-08T06:22:00;10.52;;;5.75;;
9413;SDS011;4746;35.664;139.738;2023-07-08T06:24:30;12.20;;;6.03;;
9413;SDS011;4746;35.664;139.738;2023-07-08T06:26:58;13.88;;;6.53;;
9413;SDS011;4746;35.664;139.738;2023-07-08T06:29:26;11.52;;;5.68;;
9413;SDS011;4746;35.664;139.738;2023-07-08T06:31:54;11.05;;;5.63;;
9413;SDS011;4746;35.664;139.738;2023-07-08T06:34:21;12.68;;;6.28;;
9413;SDS011;4746;35.664;139.738;2023-07-08T06:36:49;10.80;;;6.32;;
9413;SDS011;4746;35.664;139.738;2023-07-08T06:39:17;13.20;;;6.75;;
9413;SDS011;4746;35.664;139.738;2023-07-08T06:41:46;10.90;;;6.35;;
9413;SDS011;4746;35.664;139.738;2023-07-08T06:44:13;16.13;;;8.10;;
9413;SDS011;4746;35.664;139.738;2023-07-08T06:46:41;14.73;;;6.60;;
9413;SDS011;4746;35.664;139.738;2023-07-08T06:49:08;13.75;;;7.25;;
9413;SDS011;4746;35.664;139.738;2023-07-08T06:51:37;12.77;;;6.65;;
9413;SDS011;4746;35.664;139.738;2023-07-08T06:54:05;16.17;;;7.90;;
9413;SDS011;4746;35.664;139.738;2023-07-08T06:56:40;14.85;;;7.18;;
9413;SDS011;4746;35.664;139.738;2023-07-08T06:59:08;15.63;;;7.85;;
9413;SDS011;4746;35.664;139.738;2023-07-08T07:01:36;11.15;;;7.00;;
9413;SDS011;4746;35.664;139.738;2023-07-08T07:04:04;15.10;;;7.60;;
9413;SDS011;4746;35.664;139.738;2023-07-08T07:06:31;13.73;;;7.60;;
9413;SDS011;4746;35.664;139.738;2023-07-08T07:08:59;11.20;;;7.53;;
9413;SDS011;4746;35.664;139.738;2023-07-08T07:11:26;12.50;;;6.68;;
9413;SDS011;4746;35.664;139.738;2023-07-08T07:13:54;13.65;;;7.07;;
9413;SDS011;4746;35.664;139.738;2023-07-08T07:16:22;13.73;;;7.43;;
9413;SDS011;4746;35.664;139.738;2023-07-08T07:18:58;12.68;;;6.63;;
9413;SDS011;4746;35.664;139.738;2023-07-08T07:21:31;12.88;;;7.25;;
9413;SDS011;4746;35.664;139.738;2023-07-08T07:24:07;14.13;;;7.20;;
9413;SDS011;4746;35.664;139.738;2023-07-08T07:26:40;13.13;;;7.13;;
9413;SDS011;4746;35.664;139.738;2023-07-08T07:29:08;13.02;;;7.25;;
9413;SDS011;4746;35.664;139.738;2023-07-08T07:31:43;12.55;;;7.03;;
9413;SDS011;4746;35.664;139.738;2023-07-08T07:34:13;11.68;;;6.35;;
9413;SDS011;4746;35.664;139.738;2023-07-08T07:36:43;14.85;;;7.85;;
9413;SDS011;4746;35.664;139.738;2023-07-08T07:39:11;12.57;;;7.68;;
9413;SDS011;4746;35.664;139.738;2023-07-08T07:41:38;12.40;;;6.07;;
9413;SDS011;4746;35.664;139.738;2023-07-08T07:44:07;11.27;;;7.05;;
9413;SDS011;4746;35.664;139.738;2023-07-08T07:46:34;12.20;;;6.47;;
9413;SDS011;4746;35.664;139.738;2023-07-08T07:49:02;12.02;;;6.03;;
9413;SDS011;4746;35.664;139.738;2023-07-08T07:51:29;9.98;;;5.85;;
9413;SDS011;4746;35.664;139.738;2023-07-08T07:53:57;12.43;;;6.47;;
9413;SDS011;4746;35.664;139.738;2023-07-08T07:56:24;11.75;;;5.97;;
9413;SDS011;4746;35.664;139.738;2023-07-08T07:58:52;10.32;;;6.25;;
9413;SDS011;4746;35.664;139.738;2023-07-08T08:01:20;10.02;;;5.93;;
9413;SDS011;4746;35.664;139.738;2023-07-08T08:03:48;8.15;;;5.55;;
9413;SDS011;4746;35.664;139.738;2023-07-08T08:06:16;9.20;;;5.55;;
9413;SDS011;4746;35.664;139.738;2023-07-08T08:08:44;12.32;;;6.05;;
9413;SDS011;4746;35.664;139.738;2023-07-08T08:11:13;14.02;;;6.13;;
9413;SDS011;4746;35.664;139.738;2023-07-08T08:13:41;9.07;;;5.68;;
9413;SDS011;4746;35.664;139.738;2023-07-08T08:16:09;11.82;;;6.53;;
9413;SDS011;4746;35.664;139.738;2023-07-08T08:18:36;11.65;;;6.05;;
9413;SDS011;4746;35.664;139.738;2023-07-08T08:21:06;12.60;;;6.45;;
9413;SDS011;4746;35.664;139.738;2023-07-08T08:23:34;11.30;;;5.93;;
9413;SDS011;4746;35.664;139.738;2023-07-08T08:26:02;14.50;;;6.25;;
9413;SDS011;4746;35.664;139.738;2023-07-08T08:28:29;17.85;;;7.40;;
9413;SDS011;4746;35.664;139.738;2023-07-08T08:30:57;13.02;;;7.07;;
9413;SDS011;4746;35.664;139.738;2023-07-08T08:33:24;11.82;;;7.20;;
9413;SDS011;4746;35.664;139.738;2023-07-08T08:35:52;14.50;;;6.82;;
9413;SDS011;4746;35.664;139.738;2023-07-08T08:38:20;13.60;;;7.25;;
9413;SDS011;4746;35.664;139.738;2023-07-08T08:40:47;13.63;;;7.10;;
9413;SDS011;4746;35.664;139.738;2023-07-08T08:51:58;12.57;;;7.28;;
9413;SDS011;4746;35.664;139.738;2023-07-08T08:54:26;13.80;;;7.35;;
9413;SDS011;4746;35.664;139.738;2023-07-08T08:57:00;15.50;;;7.25;;
9413;SDS011;4746;35.664;139.738;2023-07-08T08:59:57;11.27;;;6.38;;
9413;SDS011;4746;35.664;139.738;2023-07-08T09:05:29;12.50;;;6.85;;
9413;SDS011;4746;35.664;139.738;2023-07-08T09:14:12;14.52;;;7.47;;
9413;SDS011;4746;35.664;139.738;2023-07-08T09:23:00;13.65;;;7.30;;
9413;SDS011;4746;35.664;139.738;2023-07-08T09:25:49;14.02;;;8.15;;
9413;SDS011;4746;35.664;139.738;2023-07-08T09:28:37;12.82;;;7.82;;
9413;SDS011;4746;35.664;139.738;2023-07-08T09:31:26;11.15;;;7.63;;
9413;SDS011;4746;35.664;139.738;2023-07-08T09:34:10;13.48;;;7.18;;
9413;SDS011;4746;35.664;139.738;2023-07-08T09:36:45;16.10;;;8.45;;
9413;SDS011;4746;35.664;139.738;2023-07-08T09:39:16;14.93;;;8.52;;
9413;SDS011;4746;35.664;139.738;2023-07-08T09:41:47;12.68;;;7.50;;
9413;SDS011;4746;35.664;139.738;2023-07-08T09:44:17;13.35;;;7.38;;
9413;SDS011;4746;35.664;139.738;2023-07-08T09:46:52;14.05;;;7.82;;
9413;SDS011;4746;35.664;139.738;2023-07-08T09:49:36;12.93;;;7.35;;
9413;SDS011;4746;35.664;139.738;2023-07-08T09:52:04;12.90;;;7.20;;
9413;SDS011;4746;35.664;139.738;2023-07-08T09:54:31;14.00;;;8.18;;
9413;SDS011;4746;35.664;139.738;2023-07-08T09:59:56;12.52;;;7.32;;
9413;SDS011;4746;35.664;139.738;2023-07-08T10:05:14;13.48;;;7.82;;
9413;SDS011;4746;35.664;139.738;2023-07-08T10:08:00;12.25;;;7.75;;
9413;SDS011;4746;35.664;139.738;2023-07-08T10:10:36;13.38;;;7.50;;
9413;SDS011;4746;35.664;139.738;2023-07-08T10:13:40;15.07;;;7.40;;
9413;SDS011;4746;35.664;139.738;2023-07-08T10:16:16;13.73;;;8.15;;
9413;SDS011;4746;35.664;139.738;2023-07-08T10:18:53;15.35;;;7.30;;
9413;SDS011;4746;35.664;139.738;2023-07-08T10:33:55;12.60;;;8.95;;
9413;SDS011;4746;35.664;139.738;2023-07-08T10:43:00;15.55;;;8.20;;
9413;SDS011;4746;35.664;139.738;2023-07-08T11:03:23;11.93;;;7.45;;
9413;SDS011;4746;35.664;139.738;2023-07-08T11:09:21;12.75;;;8.02;;
9413;SDS011;4746;35.664;139.738;2023-07-08T11:15:18;14.73;;;7.15;;
9413;SDS011;4746;35.664;139.738;2023-07-08T11:18:18;13.30;;;7.78;;
9413;SDS011;4746;35.664;139.738;2023-07-08T11:23:47;19.15;;;7.22;;
9413;SDS011;4746;35.664;139.738;2023-07-08T11:26:33;12.05;;;7.72;;
9413;SDS011;4746;35.664;139.738;2023-07-08T11:29:24;13.25;;;8.18;;
9413;SDS011;4746;35.664;139.738;2023-07-08T11:32:19;13.50;;;7.63;;
9413;SDS011;4746;35.664;139.738;2023-07-08T11:34:51;15.90;;;8.23;;
9413;SDS011;4746;35.664;139.738;2023-07-08T11:37:22;12.57;;;7.28;;
9413;SDS011;4746;35.664;139.738;2023-07-08T11:42:40;11.85;;;7.55;;
9413;SDS011;4746;35.664;139.738;2023-07-08T11:48:18;10.23;;;7.82;;
9413;SDS011;4746;35.664;139.738;2023-07-08T11:51:06;14.35;;;6.57;;
9413;SDS011;4746;35.664;139.738;2023-07-08T11:53:46;12.65;;;7.63;;
9413;SDS011;4746;35.664;139.738;2023-07-08T11:56:22;11.55;;;6.95;;
9413;SDS011;4746;35.664;139.738;2023-07-08T11:58:57;13.20;;;7.00;;
9413;SDS011;4746;35.664;139.738;2023-07-08T12:01:34;14.45;;;6.82;;
9413;SDS011;4746;35.664;139.738;2023-07-08T12:04:29;16.23;;;7.35;;
9413;SDS011;4746;35.664;139.738;2023-07-08T12:07:45;17.80;;;8.05;;
9413;SDS011;4746;35.664;139.738;2023-07-08T12:10:17;13.65;;;6.82;;
9413;SDS011;4746;35.664;139.738;2023-07-08T12:13:00;11.18;;;6.85;;
9413;SDS011;4746;35.664;139.738;2023-07-08T12:15:32;12.60;;;6.70;;
9413;SDS011;4746;35.664;139.738;2023-07-08T12:18:01;14.00;;;7.35;;
9413;SDS011;4746;35.664;139.738;2023-07-08T12:20:39;13.23;;;7.50;;
9413;SDS011;4746;35.664;139.738;2023-07-08T12:23:28;16.88;;;7.82;;
9413;SDS011;4746;35.664;139.738;2023-07-08T12:25:56;13.15;;;7.40;;
9413;SDS011;4746;35.664;139.738;2023-07-08T12:28:24;12.70;;;8.02;;
9413;SDS011;4746;35.664;139.738;2023-07-08T12:30:52;12.48;;;6.93;;
9413;SDS011;4746;35.664;139.738;2023-07-08T12:33:29;12.57;;;7.65;;
9413;SDS011;4746;35.664;139.738;2023-07-08T12:36:00;14.05;;;7.35;;
9413;SDS011;4746;35.664;139.738;2023-07-08T12:38:33;11.73;;;7.15;;
9413;SDS011;4746;35.664;139.738;2023-07-08T12:41:18;12.95;;;6.70;;
9413;SDS011;4746;35.664;139.738;2023-07-08T12:43:53;14.23;;;7.38;;
9413;SDS011;4746;35.664;139.738;2023-07-08T12:46:22;10.48;;;7.25;;
9413;SDS011;4746;35.664;139.738;2023-07-08T12:48:53;11.20;;;6.60;;
9413;SDS011;4746;35.664;139.738;2023-07-08T12:51:23;11.57;;;6.75;;
9413;SDS011;4746;35.664;139.738;2023-07-08T12:53:52;11.10;;;7.18;;
9413;SDS011;4746;35.664;139.738;2023-07-08T12:56:21;10.93;;;7.20;;
9413;SDS011;4746;35.664;139.738;2023-07-08T12:58:51;11.95;;;7.28;;
9413;SDS011;4746;35.664;139.738;2023-07-08T13:01:24;11.98;;;6.93;;
9413;SDS011;4746;35.664;139.738;2023-07-08T13:03:58;13.15;;;7.30;;
9413;SDS011;4746;35.664;139.738;2023-07-08T13:06:31;17.05;;;7.82;;
9413;SDS011;4746;35.664;139.738;2023-07-08T13:09:18;14.02;;;8.15;;
9413;SDS011;4746;35.664;139.738;2023-07-08T13:12:13;11.40;;;7.40;;
9413;SDS011;4746;35.664;139.738;2023-07-08T13:14:50;9.57;;;6.47;;
9413;SDS011;4746;35.664;139.738;2023-07-08T13:17:23;13.18;;;8.55;;
9413;SDS011;4746;35.664;139.738;2023-07-08T13:19:51;11.95;;;8.18;;
9413;SDS011;4746;35.664;139.738;2023-07-08T13:22:20;12.05;;;7.53;;
9413;SDS011;4746;35.664;139.738;2023-07-08T13:24:49;10.80;;;7.90;;
9413;SDS011;4746;35.664;139.738;2023-07-08T13:27:36;15.82;;;8.25;;
9413;SDS011;4746;35.664;139.738;2023-07-08T13:30:17;12.52;;;8.25;;
9413;SDS011;4746;35.664;139.738;2023-07-08T13:32:54;10.73;;;8.40;;
9413;SDS011;4746;35.664;139.738;2023-07-08T13:35:33;14.63;;;8.55;;
9413;SDS011;4746;35.664;139.738;2023-07-08T13:38:05;15.98;;;8.68;;
9413;SDS011;4746;35.664;139.738;2023-07-08T13:40:45;13.40;;;8.95;;
9413;SDS011;4746;35.664;139.738;2023-07-08T13:43:26;13.85;;;8.57;;
9413;SDS011;4746;35.664;139.738;2023-07-08T13:46:06;13.35;;;9.43;;
9413;SDS011;4746;35.664;139.738;2023-07-08T13:48:56;12.38;;;8.43;;
9413;SDS011;4746;35.664;139.738;2023-07-08T13:51:37;12.50;;;8.30;;
9413;SDS011;4746;35.664;139.738;2023-07-08T13:54:23;12.18;;;8.73;;
9413;SDS011;4746;35.664;139.738;2023-07-08T13:56:59;11.23;;;8.82;;
9413;SDS011;4746;35.664;139.738;2023-07-08T13:59:29;12.73;;;10.43;;
9413;SDS011;4746;35.664;139.738;2023-07-08T14:01:57;19.15;;;13.65;;
9413;SDS011;4746;35.664;139.738;2023-07-08T14:04:29;17.40;;;14.55;;
9413;SDS011;4746;35.664;139.738;2023-07-08T14:07:01;16.73;;;14.52;;
9413;SDS011;4746;35.664;139.738;2023-07-08T14:09:28;19.80;;;15.10;;
9413;SDS011;4746;35.664;139.738;2023-07-08T14:11:56;19.10;;;15.20;;
9413;SDS011;4746;35.664;139.738;2023-07-08T14:14:23;19.38;;;14.95;;
9413;SDS011;4746;35.664;139.738;2023-07-08T14:16:52;18.50;;;14.52;;
9413;SDS011;4746;35.664;139.738;2023-07-08T14:19:25;15.52;;;13.02;;
9413;SDS011;4746;35.664;139.738;2023-07-08T14:22:02;15.57;;;13.75;;
9413;SDS011;4746;35.664;139.738;2023-07-08T14:24:51;19.27;;;16.38;;
9413;SDS011;4746;35.664;139.738;2023-07-08T14:27:20;21.33;;;14.18;;
9413;SDS011;4746;35.664;139.738;2023-07-08T14:29:49;16.88;;;13.75;;
9413;SDS011;4746;35.664;139.738;2023-07-08T14:32:26;17.05;;;13.88;;
9413;SDS011;4746;35.664;139.738;2023-07-08T14:37:49;16.40;;;14.02;;
9413;SDS011;4746;35.664;139.738;2023-07-08T14:40:21;23.05;;;14.80;;
9413;SDS011;4746;35.664;139.738;2023-07-08T14:42:55;18.15;;;14.77;;
9413;SDS011;4746;35.664;139.738;2023-07-08T14:45:38;16.52;;;14.70;;
9413;SDS011;4746;35.664;139.738;2023-07-08T14:48:11;15.95;;;12.95;;
9413;SDS011;4746;35.664;139.738;2023-07-08T14:50:39;15.32;;;13.73;;
9413;SDS011;4746;35.664;139.738;2023-07-08T14:53:07;15.02;;;13.45;;
9413;SDS011;4746;35.664;139.738;2023-07-08T14:55:35;16.58;;;13.80;;
9413;SDS011;4746;35.664;139.738;2023-07-08T14:58:03;17.58;;;13.80;;
9413;SDS011;4746;35.664;139.738;2023-07-08T15:00:31;17.55;;;12.18;;
9413;SDS011;4746;35.664;139.738;2023-07-08T15:02:59;15.25;;;12.75;;
9413;SDS011;4746;35.664;139.738;2023-07-08T15:05:27;15.45;;;12.45;;
9413;SDS011;4746;35.664;139.738;2023-07-08T15:07:56;15.90;;;11.85;;
9413;SDS011;4746;35.664;139.738;2023-07-08T15:10:27;18.75;;;12.43;;
9413;SDS011;4746;35.664;139.738;2023-07-08T15:12:58;15.77;;;10.98;;
9413;SDS011;4746;35.664;139.738;2023-07-08T15:15:30;12.45;;;10.55;;
9413;SDS011;4746;35.664;139.738;2023-07-08T15:18:14;18.10;;;11.52;;
9413;SDS011;4746;35.664;139.738;2023-07-08T15:20:45;12.20;;;9.65;;
9413;SDS011;4746;35.664;139.738;2023-07-08T15:23:12;17.65;;;9.50;;
9413;SDS011;4746;35.664;139.738;2023-07-08T15:25:41;14.65;;;9.73;;
9413;SDS011;4746;35.664;139.738;2023-07-08T15:28:15;16.85;;;10.70;;
9413;SDS011;4746;35.664;139.738;2023-07-08T15:31:02;18.23;;;9.98;;
9413;SDS011;4746;35.664;139.738;2023-07-08T15:33:30;15.15;;;10.52;;
9413;SDS011;4746;35.664;139.738;2023-07-08T15:35:57;15.43;;;9.18;;
9413;SDS011;4746;35.664;139.738;2023-07-08T15:38:24;19.35;;;11.07;;
9413;SDS011;4746;35.664;139.738;2023-07-08T15:40:52;14.80;;;10.60;;
9413;SDS011;4746;35.664;139.738;2023-07-08T15:43:20;16.95;;;9.82;;
9413;SDS011;4746;35.664;139.738;2023-07-08T15:45:47;19.95;;;10.82;;
9413;SDS011;4746;35.664;139.738;2023-07-08T15:48:15;19.13;;;10.40;;
9413;SDS011;4746;35.664;139.738;2023-07-08T15:50:44;15.25;;;9.18;;
9413;SDS011;4746;35.664;139.738;2023-07-08T15:53:15;14.25;;;10.27;;
9413;SDS011;4746;35.664;139.738;2023-07-08T15:55:43;17.30;;;10.00;;
9413;SDS011;4746;35.664;139.738;2023-07-08T15:58:24;15.90;;;9.43;;
9413;SDS011;4746;35.664;139.738;2023-07-08T16:00:57;16.88;;;10.35;;
9413;SDS011;4746;35.664;139.738;2023-07-08T16:03:28;19.25;;;10.75;;
9413;SDS011;4746;35.664;139.738;2023-07-08T16:06:02;11.63;;;9.20;;
9413;SDS011;4746;35.664;139.738;2023-07-08T16:08:29;15.13;;;9.43;;
9413;SDS011;4746;35.664;139.738;2023-07-08T16:10:57;16.85;;;10.52;;
9413;SDS011;4746;35.664;139.738;2023-07-08T16:13:36;15.00;;;11.15;;
9413;SDS011;4746;35.664;139.738;2023-07-08T16:16:05;18.60;;;9.68;;
9413;SDS011;4746;35.664;139.738;2023-07-08T16:18:35;17.60;;;10.90;;
9413;SDS011;4746;35.664;139.738;2023-07-08T16:21:05;15.18;;;9.80;;
9413;SDS011;4746;35.664;139.738;2023-07-08T16:23:33;15.95;;;10.80;;
9413;SDS011;4746;35.664;139.738;2023-07-08T16:26:01;19.92;;;10.80;;
9413;SDS011;4746;35.664;139.738;2023-07-08T16:28:32;17.70;;;9.93;;
9413;SDS011;4746;35.664;139.738;2023-07-08T16:31:15;14.52;;;10.13;;
9413;SDS011;4746;35.664;139.738;2023-07-08T16:33:46;18.30;;;10.88;;